首页
METAR-TAF:

METAR-TAF

机场 :

卡尔加里国际机场

卡尔加里, 艾伯塔, 加拿大

纬度: 51-07N, 经度: 114-01W, 海拔: 1077米

当前天气观测

该预报发布于30分钟前的21:00 UTC
风速12节,风向南转南东
温度 13°C
湿度 38%
气压 1019 hPa
能見度: 48.3公里
少量云层高于30000英尺

METAR: CYYC 222100Z 16012KT 30SM FEW300 13/M01 A3008 RMK CI1 CI TR SLP218 DENSITY ALT 4000FT

时间: 15:30 (21:30 UTC)

预报

该预报发布于52分钟前的20:38 UTC
预报有效从22日的 21点(UTC)到 23日的 18点(UTC)
风速10节,风向
能見度: 10公里
天空无云
成为
从 23日的 03点(UTC)到 23日的 05点(UTC)
风速3节,风向多变
成为
从 23日的 15点(UTC)到 23日的 17点(UTC)
风速8节,风向南转西南

TAF: CYYC 222038Z 2221/2318 17010KT P6SM SKC BECMG 2303/2305 VRB03KT BECMG 2315/2317 20008KT RMK NXT FCST BY 230000Z

超过4000个机场的气象观测和天气预报(METAR&TAF报告)。

可查询的气象台以黄色和红色小点在地图上表示。

将鼠标移到小点上方,可查看气象台名称。

然后点击查看天气观测和预报。

如需切换地图:点击带黑十字的绿色按钮放大地图;点击带横线的绿色按钮缩小地图;或者点击绿色箭头查看邻近地区的地图。


METAR-TAF: